weather.gov     
National Weather Service

Terminal Aerodrome Forecast
NWS Homepage
This page is being discontinued on March 12, 2014.
The same data is available at this site. Please update your bookmarks.
Thank you, and we apologize for the inconvenience.
Please send an email to SR-SRH.Webmaster@noaa.gov with any concerns.


Current Version
Previous Version:    01  02  03  04  05  06  07  08  09  10  11  12  13  14  15  16  17  18  19  20  21  22  23  24  25  26  27  28  29  30  
   31  32  33  34  35  36  37  
[Printable]
495
FTUS46 KPQR 241224 AAB
TAFSLE
TAF AMD
KSLE 241224Z 2412/2512 19016KT P6SM -RA SCT015 BKN022 OVC050
      TEMPO 2413/2414 BKN012 OVC022
     FM241500 25011KT P6SM -SHRA SCT025 OVC045
     FM241800 25011G19KT P6SM -SHRA SCT025 BKN040 BKN060
     FM250300 22005KT P6SM VCSH SCT040 BKN060=


495
FTUS46 KPQR 241224 AAB
TAFSLE
TAF AMD
KSLE 241224Z 2412/2512 19016KT P6SM -RA SCT015 BKN022 OVC050
      TEMPO 2413/2414 BKN012 OVC022
     FM241500 25011KT P6SM -SHRA SCT025 OVC045
     FM241800 25011G19KT P6SM -SHRA SCT025 BKN040 BKN060
     FM250300 22005KT P6SM VCSH SCT040 BKN060=




U.S. Dept. of Commerce
NOAA National Weather Service
1325 East West Highway
Silver Spring, MD 20910
E-mail: w-nws.webmaster@noaa.gov
Page last modified: May 16, 2007
NATIONAL WEATHER SERVICE: for Safety, for Work, for Fun - FOR LIFE